PILOTS ONLINE: 353    ATC ONLINE: 49

Location

City Las Vegas
Country  United States
Latitude 35° 58' 22" N
Longitude 115° 8' 2" W
Elevation 2492 ft
Type Small Airport

Weather

METAR
2014/07/13 08:56
KHND 130856Z AUTO 18007KT 10SM CLR 29/04 A2996 RMK AO2 52001 T02880044 SLP111
TAF
2014/07/13 06:33
TAF KHND 130530Z 1306/1406 18007KT P6SM BKN250 
     FM131500 VRB04KT P6SM FEW140 SCT250 
     FM132000 05007KT P6SM SCT140 SCT250 
     FM132200 12007KT P6SM SCT140 SCT250 
     FM140300 18009KT P6SM SCT140 BKN250

Runways

17L/35R 5001 ft / 75 ft
17R/35L 6501 ft / 100 ft

Outbound flights

Inbound flights


Spotted incorrect airport information? Please login with your VATSIM ID.